Time;durP1;ratioP1;P1;durP2;ratioP2;P2;SDS_P1;SDS_P2;PMS_P1;PMS_P2;Temp;Humidity;BMP_temperature;BMP_pressure;BME280_temperature;BME280_humidity;BME280_pressure;Samples;Min_cycle;Max_cycle;Signal;HPM_P1;HPM_P2
2021/12/24 00:02:14;;;;;;;9.85;5.25;;;8.40;99.90;;;;;;5033686;28;20429;-64
2021/12/24 00:04:40;;;;;;;10.43;4.67;;;8.30;99.90;;;;;;5033809;28;20026;-64
2021/12/24 00:07:06;;;;;;;7.60;3.77;;;8.30;99.90;;;;;;5034102;28;20033;-64
2021/12/24 00:09:33;;;;;;;7.75;4.10;;;8.40;99.90;;;;;;5034067;28;20034;-64
2021/12/24 00:12:02;;;;;;;8.20;3.85;;;8.40;99.90;;;;;;5034011;28;20583;-64
2021/12/24 00:14:30;;;;;;;6.43;4.00;;;8.50;99.90;;;;;;5033750;28;20025;-64
2021/12/24 00:17:00;;;;;;;5.72;3.55;;;8.50;99.90;;;;;;5032515;28;20032;-64
2021/12/24 00:35:34;;;;;;;6.93;3.63;;;8.90;99.90;;;;;;5034193;28;20136;-64
2021/12/24 00:38:03;;;;;;;5.80;3.58;;;9.00;99.90;;;;;;5033737;28;20037;-64
2021/12/24 00:40:35;;;;;;;6.13;3.97;;;9.00;99.90;;;;;;5033268;28;20024;-64
2021/12/24 00:43:01;;;;;;;8.90;3.90;;;9.00;99.90;;;;;;5033387;28;20021;-64
2021/12/24 00:45:31;;;;;;;5.03;3.45;;;9.00;99.90;;;;;;5033576;28;20542;-64
2021/12/24 00:47:59;;;;;;;7.53;3.67;;;9.00;99.90;;;;;;5033687;28;20025;-64
2021/12/24 00:50:29;;;;;;;6.90;3.50;;;9.00;99.90;;;;;;5033969;28;20071;-64
2021/12/24 00:53:01;;;;;;;8.98;3.63;;;9.00;99.90;;;;;;5033754;28;20113;-64
2021/12/24 00:55:29;;;;;;;7.53;3.72;;;9.00;99.90;;;;;;5033585;28;20026;-64
2021/12/24 00:57:57;;;;;;;5.75;3.33;;;9.00;99.90;;;;;;5031919;28;20025;-64
2021/12/24 01:00:33;;;;;;;5.90;3.45;;;9.00;99.90;;;;;;5033158;28;20120;-64
2021/12/24 01:03:01;;;;;;;7.53;3.50;;;9.10;99.90;;;;;;5033054;28;20045;-64
2021/12/24 01:05:28;;;;;;;7.25;4.05;;;9.20;99.90;;;;;;5032940;28;20018;-64
2021/12/24 01:07:55;;;;;;;8.45;3.80;;;9.20;99.90;;;;;;5032854;28;20069;-64
2021/12/24 01:10:26;;;;;;;7.45;4.15;;;9.10;99.90;;;;;;5033011;28;20022;-62
2021/12/24 01:12:52;;;;;;;6.65;3.78;;;9.20;99.90;;;;;;5033155;28;20437;-64
2021/12/24 01:15:18;;;;;;;7.43;4.68;;;9.20;99.90;;;;;;5032814;28;20038;-64
2021/12/24 01:17:53;;;;;;;7.88;3.90;;;9.20;99.90;;;;;;5032717;28;20104;-63
2021/12/24 01:20:38;;;;;;;9.55;4.55;;;9.10;99.90;;;;;;5032987;28;20018;-64
2021/12/24 01:25:58;;;;;;;8.70;4.20;;;9.00;99.90;;;;;;5032944;28;20033;-64
2021/12/24 01:44:26;;;;;;;6.85;4.47;;;9.00;99.90;;;;;;5036791;28;20548;-64
2021/12/24 01:46:54;;;;;;;9.90;4.53;;;8.90;99.90;;;;;;5036732;28;20104;-64
2021/12/24 01:49:19;;;;;;;9.75;4.97;;;8.90;99.90;;;;;;5036392;28;20059;-64
2021/12/24 01:51:45;;;;;;;7.60;4.53;;;8.80;99.90;;;;;;5036501;28;20072;-64
2021/12/24 01:54:11;;;;;;;7.83;4.97;;;8.80;99.90;;;;;;5036418;28;20033;-64
2021/12/24 01:56:38;;;;;;;8.43;4.72;;;8.80;99.90;;;;;;5036466;28;20625;-64
2021/12/24 01:59:03;;;;;;;7.95;4.95;;;8.80;99.90;;;;;;5036594;28;20390;-64
2021/12/24 02:01:29;;;;;;;7.13;3.93;;;8.80;99.90;;;;;;5035991;28;20033;-64
2021/12/24 02:03:55;;;;;;;10.07;4.50;;;8.80;99.90;;;;;;5035076;28;20292;-64
2021/12/24 02:06:21;;;;;;;12.40;5.17;;;8.80;99.90;;;;;;5036110;28;20734;-64
2021/12/24 02:08:47;;;;;;;8.80;4.20;;;8.80;99.90;;;;;;5036368;28;20447;-64
2021/12/24 02:11:12;;;;;;;6.03;3.80;;;8.80;99.90;;;;;;5036256;28;20053;-64
2021/12/24 02:13:41;;;;;;;6.47;3.77;;;8.90;99.90;;;;;;5035815;28;20025;-62
2021/12/24 02:16:41;;;;;;;8.65;4.32;;;8.90;99.90;;;;;;5035764;28;20025;-64
2021/12/24 02:30:04;;;;;;;8.23;4.28;;;9.00;99.90;;;;;;5043132;28;20036;-64
2021/12/24 02:32:30;;;;;;;6.65;3.67;;;9.00;99.90;;;;;;5043631;28;20423;-63
2021/12/24 02:34:55;;;;;;;6.67;3.87;;;8.90;99.90;;;;;;5040241;28;20037;-63
2021/12/24 02:37:21;;;;;;;7.93;3.97;;;9.00;99.90;;;;;;5036280;28;20401;-62
2021/12/24 02:39:46;;;;;;;8.37;3.87;;;9.00;99.90;;;;;;5035459;28;20108;-63
2021/12/24 02:42:18;;;;;;;5.07;3.37;;;9.00;99.90;;;;;;5035662;28;20127;-63
2021/12/24 02:44:46;;;;;;;7.38;3.63;;;9.00;99.90;;;;;;5035209;28;20030;-63
2021/12/24 02:47:39;;;;;;;6.72;3.53;;;9.10;99.90;;;;;;5035479;28;20420;-62
2021/12/24 02:55:12;;;;;;;7.65;4.07;;;8.90;99.90;;;;;;5034543;28;20048;-62
2021/12/24 02:57:39;;;;;;;6.88;3.85;;;8.90;99.90;;;;;;5035296;28;20025;-64
2021/12/24 03:00:19;;;;;;;7.03;3.65;;;8.90;99.90;;;;;;5034953;28;20101;-64
2021/12/24 03:02:45;;;;;;;4.60;3.17;;;8.90;99.90;;;;;;5034813;28;20383;-63
2021/12/24 03:05:14;;;;;;;4.65;3.28;;;8.80;99.90;;;;;;5033460;28;20105;-64
2021/12/24 03:07:41;;;;;;;6.22;3.60;;;8.90;99.90;;;;;;5035105;28;20124;-64
2021/12/24 03:10:13;;;;;;;6.68;3.78;;;8.90;99.90;;;;;;5034796;28;20025;-64
2021/12/24 03:12:40;;;;;;;6.22;3.85;;;8.90;99.90;;;;;;5034999;28;20029;-64
2021/12/24 03:15:07;;;;;;;8.68;4.43;;;8.90;99.90;;;;;;5034591;28;20029;-64
2021/12/24 03:17:33;;;;;;;7.13;4.18;;;8.80;99.90;;;;;;5034585;28;20049;-64
2021/12/24 03:20:07;;;;;;;5.38;3.60;;;8.90;99.90;;;;;;5034679;28;20116;-64
2021/12/24 03:25:08;;;;;;;7.70;4.22;;;8.80;99.90;;;;;;5034647;28;20021;-65
2021/12/24 03:27:33;;;;;;;6.38;4.20;;;8.80;99.90;;;;;;5034396;28;20100;-63
2021/12/24 03:29:59;;;;;;;5.55;3.80;;;8.80;99.90;;;;;;5034228;28;20061;-63
2021/12/24 03:32:25;;;;;;;6.57;4.03;;;8.80;99.90;;;;;;5034369;28;20026;-60
2021/12/24 03:34:51;;;;;;;8.70;4.10;;;8.80;99.90;;;;;;5034125;28;20037;-63
2021/12/24 03:37:18;;;;;;;7.30;3.75;;;8.80;99.90;;;;;;5034247;28;20037;-63
2021/12/24 03:39:46;;;;;;;6.00;3.85;;;8.80;99.90;;;;;;5034055;28;20030;-63
2021/12/24 03:42:12;;;;;;;7.35;4.05;;;8.80;99.90;;;;;;5033939;28;20478;-63
2021/12/24 03:44:45;;;;;;;7.83;4.03;;;8.80;99.90;;;;;;5032973;28;20032;-63
2021/12/24 03:47:14;;;;;;;6.78;4.25;;;8.70;99.90;;;;;;5034089;28;20108;-64
2021/12/24 03:50:06;;;;;;;10.95;4.30;;;8.70;99.90;;;;;;5033974;28;20478;-64
2021/12/24 03:54:56;;;;;;;7.00;4.00;;;8.70;99.90;;;;;;5034024;28;20042;-63
2021/12/24 03:57:33;;;;;;;6.85;3.72;;;8.70;99.90;;;;;;5033687;28;20036;-63
2021/12/24 04:00:07;;;;;;;6.53;4.10;;;8.70;99.90;;;;;;5033871;28;20021;-63
2021/12/24 04:02:32;;;;;;;7.05;3.70;;;8.70;99.90;;;;;;5033798;28;20363;-64
2021/12/24 04:04:58;;;;;;;5.37;3.30;;;8.70;99.90;;;;;;5034025;28;20123;-63
2021/12/24 04:07:24;;;;;;;9.87;4.47;;;8.60;99.90;;;;;;5034427;28;20105;-64
2021/12/24 04:10:00;;;;;;;6.43;4.07;;;8.60;99.90;;;;;;5033851;28;20097;-64
2021/12/24 04:12:26;;;;;;;8.23;5.40;;;8.50;99.90;;;;;;5033928;28;20030;-64
2021/12/24 04:14:52;;;;;;;5.77;4.00;;;8.50;99.90;;;;;;5033596;28;20052;-63
2021/12/24 04:17:18;;;;;;;;;;;8.50;99.90;;;;;;5032747;28;20362;-64
2021/12/24 04:25:12;;;;;;;6.55;3.65;;;8.50;99.90;;;;;;5033399;28;20105;-63
2021/12/24 04:27:38;;;;;;;6.53;4.03;;;8.50;99.90;;;;;;5033687;28;20443;-64
2021/12/24 04:30:21;;;;;;;5.53;3.80;;;8.50;99.90;;;;;;5033508;28;20537;-63
2021/12/24 04:35:46;;;;;;;6.35;3.88;;;8.50;99.90;;;;;;5028773;28;20120;-63
2021/12/24 04:51:49;;;;;;;6.00;3.78;;;8.50;99.90;;;;;;5033040;28;20095;-64
2021/12/24 05:05:10;;;;;;;5.53;3.45;;;8.60;99.90;;;;;;5032783;28;20014;-63
2021/12/24 05:10:17;;;;;;;7.90;4.25;;;8.70;99.90;;;;;;5032899;28;20022;-63
2021/12/24 05:12:43;;;;;;;7.82;3.80;;;8.70;99.90;;;;;;5031606;28;20079;-63
2021/12/24 05:15:11;;;;;;;7.40;3.67;;;8.60;99.90;;;;;;5032875;28;20048;-63
2021/12/24 05:18:06;;;;;;;7.28;3.80;;;8.70;99.90;;;;;;5035198;28;20449;-63
2021/12/24 05:23:16;;;;;;;7.50;3.72;;;8.70;99.90;;;;;;5036906;28;20039;-63
2021/12/24 05:25:44;;;;;;;7.90;3.87;;;8.70;99.90;;;;;;5036915;28;20104;-64
2021/12/24 05:28:10;;;;;;;9.23;3.95;;;8.70;99.90;;;;;;5036452;28;20037;-63
2021/12/24 05:30:35;;;;;;;8.10;3.42;;;8.80;99.90;;;;;;5036452;28;20347;-63
2021/12/24 05:33:01;;;;;;;6.90;3.60;;;8.80;99.90;;;;;;5036785;28;20041;-63
2021/12/24 05:35:27;;;;;;;6.90;3.83;;;8.80;99.90;;;;;;5036265;28;20075;-64
2021/12/24 05:37:53;;;;;;;6.10;3.80;;;8.80;99.90;;;;;;5036453;28;20375;-63
2021/12/24 05:40:18;;;;;;;6.00;3.40;;;8.80;99.90;;;;;;5036825;28;20156;-64
2021/12/24 05:42:44;;;;;;;5.73;3.73;;;8.80;99.90;;;;;;5035171;28;20072;-64
2021/12/24 05:45:10;;;;;;;7.50;4.13;;;8.70;99.90;;;;;;5036309;28;20025;-64
2021/12/24 05:47:36;;;;;;;6.78;3.90;;;8.70;99.90;;;;;;5035080;28;20264;-64
2021/12/24 05:50:05;;;;;;;6.63;3.85;;;8.70;99.90;;;;;;5036557;28;20466;-63
2021/12/24 05:52:32;;;;;;;7.32;3.70;;;8.70;99.90;;;;;;5036477;28;20029;-63
2021/12/24 05:54:57;;;;;;;7.30;3.92;;;8.70;99.90;;;;;;5035936;28;20114;-64
2021/12/24 05:57:24;;;;;;;7.53;4.40;;;8.70;99.90;;;;;;5036351;28;20510;-64
2021/12/24 05:59:50;;;;;;;;;;;8.70;99.90;;;;;;5037102;28;20115;-64
2021/12/24 06:02:15;;;;;;;8.25;3.85;;;8.60;99.90;;;;;;5035943;28;19909;-64
2021/12/24 06:04:41;;;;;;;8.40;3.97;;;8.60;99.90;;;;;;5035830;28;20021;-63
2021/12/24 06:07:07;;;;;;;9.40;4.00;;;8.70;99.90;;;;;;5035821;28;20864;-64
2021/12/24 06:09:32;;;;;;;7.37;3.77;;;8.70;99.90;;;;;;5035986;28;20021;-64
2021/12/24 06:11:58;;;;;;;5.90;3.77;;;8.60;99.90;;;;;;5035876;28;20026;-64
2021/12/24 06:14:23;;;;;;;6.83;3.40;;;8.60;99.90;;;;;;5035759;28;20071;-64
2021/12/24 06:16:59;;;;;;;6.37;3.63;;;8.60;99.90;;;;;;5036313;28;20112;-65
2021/12/24 06:19:26;;;;;;;8.10;3.88;;;8.60;99.90;;;;;;5036160;28;20021;-64
2021/12/24 06:21:53;;;;;;;11.07;5.97;;;8.60;99.90;;;;;;5036716;28;20045;-65
2021/12/24 06:24:19;;;;;;;10.93;6.68;;;8.70;99.90;;;;;;5036089;28;20043;-64
2021/12/24 06:26:45;;;;;;;10.40;4.13;;;8.60;99.90;;;;;;5035757;28;20024;-63
2021/12/24 06:29:11;;;;;;;;;;;8.70;99.90;;;;;;5036167;28;20435;-64
2021/12/24 06:31:37;;;;;;;8.90;4.72;;;8.70;99.90;;;;;;5035775;28;19940;-64
2021/12/24 06:34:03;;;;;;;6.67;4.10;;;8.60;99.90;;;;;;5035551;28;20037;-64
2021/12/24 06:36:33;;;;;;;;;;;8.70;99.90;;;;;;5035703;28;20167;-64
2021/12/24 06:38:59;;;;;;;6.88;3.83;;;8.70;99.90;;;;;;5035588;28;19917;-64
2021/12/24 06:41:25;;;;;;;6.93;4.00;;;8.70;99.90;;;;;;5034023;28;20029;-64
2021/12/24 06:43:50;;;;;;;8.77;3.67;;;8.70;99.90;;;;;;5035456;28;20040;-64
2021/12/24 06:46:16;;;;;;;9.10;3.70;;;8.70;99.90;;;;;;5035215;28;20071;-64
2021/12/24 06:48:41;;;;;;;10.37;4.13;;;8.70;99.90;;;;;;5035471;28;20025;-63
2021/12/24 06:51:07;;;;;;;6.93;4.17;;;8.70;99.90;;;;;;5044798;28;20029;-63
2021/12/24 06:53:33;;;;;;;6.90;3.72;;;8.70;99.90;;;;;;5055059;28;20112;-65
2021/12/24 06:55:58;;;;;;;7.83;4.17;;;8.70;99.90;;;;;;5054194;28;20073;-63
2021/12/24 06:58:24;;;;;;;7.43;3.80;;;8.80;99.90;;;;;;5035454;28;20017;-64
2021/12/24 07:00:50;;;;;;;7.20;3.70;;;8.80;99.90;;;;;;5035423;28;20063;-64
2021/12/24 07:03:15;;;;;;;6.57;3.87;;;8.80;99.90;;;;;;5035604;28;20030;-64
2021/12/24 07:05:41;;;;;;;6.43;3.50;;;8.80;99.90;;;;;;5035331;28;20101;-64
2021/12/24 07:08:07;;;;;;;5.97;3.30;;;8.80;99.90;;;;;;5033413;28;20018;-64
2021/12/24 07:10:33;;;;;;;5.57;3.63;;;8.80;99.90;;;;;;5034801;28;20544;-64
2021/12/24 07:12:58;;;;;;;8.57;4.45;;;8.80;99.90;;;;;;5034677;28;20129;-63
2021/12/24 07:15:24;;;;;;;7.73;3.97;;;8.80;99.90;;;;;;5034479;28;20112;-64
2021/12/24 07:17:50;;;;;;;6.23;3.73;;;8.80;99.90;;;;;;5034437;28;20028;-64
2021/12/24 07:20:15;;;;;;;8.10;3.75;;;8.80;99.90;;;;;;5034385;28;20021;-64
2021/12/24 07:22:41;;;;;;;6.10;3.60;;;8.80;99.90;;;;;;5034262;28;20100;-63
2021/12/24 07:25:07;;;;;;;7.00;4.37;;;8.90;99.90;;;;;;5034478;28;20275;-65
2021/12/24 07:27:35;;;;;;;6.20;3.50;;;8.90;99.90;;;;;;5034953;28;20426;-63
2021/12/24 07:30:01;;;;;;;7.45;3.78;;;8.80;99.90;;;;;;5033233;28;20030;-63
2021/12/24 07:32:26;;;;;;;5.95;3.63;;;8.90;99.90;;;;;;5034672;28;20427;-64
2021/12/24 07:34:52;;;;;;;6.57;3.60;;;8.90;99.90;;;;;;5034222;28;20103;-64
2021/12/24 07:37:18;;;;;;;7.37;3.97;;;8.90;99.90;;;;;;5034411;28;20079;-62
2021/12/24 07:39:43;;;;;;;7.47;3.80;;;8.90;99.90;;;;;;5033511;28;20458;-65
2021/12/24 07:42:09;;;;;;;5.20;3.47;;;8.90;99.90;;;;;;5034126;28;20390;-64
2021/12/24 07:44:35;;;;;;;7.13;3.83;;;8.90;99.90;;;;;;5034895;28;20486;-63
2021/12/24 07:47:04;;;;;;;7.40;3.92;;;8.90;99.90;;;;;;5034039;28;20032;-63
2021/12/24 07:49:36;;;;;;;6.75;3.53;;;8.90;99.90;;;;;;5034147;28;20474;-63
2021/12/24 07:54:29;;;;;;;6.68;3.83;;;8.90;99.90;;;;;;5033762;28;20045;-63
2021/12/24 07:56:56;;;;;;;7.07;3.80;;;8.80;99.90;;;;;;5033857;28;20038;-63
2021/12/24 07:59:21;;;;;;;9.00;3.83;;;8.80;99.90;;;;;;5032479;28;20494;-64
2021/12/24 08:01:47;;;;;;;38.43;18.17;;;8.80;99.90;;;;;;5032849;28;20132;-63
2021/12/24 08:04:14;;;;;;;7.78;3.75;;;8.80;99.90;;;;;;5034290;28;20025;-69
2021/12/24 08:06:40;;;;;;;8.13;4.90;;;8.90;99.90;;;;;;5032527;28;20025;-68
2021/12/24 08:09:07;;;;;;;9.90;5.13;;;8.90;99.90;;;;;;5032159;28;20054;-66
2021/12/24 08:11:34;;;;;;;8.82;4.78;;;8.90;99.90;;;;;;5033478;28;20025;-64
2021/12/24 08:14:02;;;;;;;7.88;4.45;;;8.90;99.90;;;;;;5033565;28;20026;-65
2021/12/24 08:16:29;;;;;;;8.07;4.10;;;8.90;99.90;;;;;;5033692;28;20483;-65
2021/12/24 08:18:55;;;;;;;;;;;8.80;99.90;;;;;;5034251;28;20394;-65
2021/12/24 08:21:21;;;;;;;9.82;4.35;;;8.90;99.90;;;;;;5034574;28;19909;-66
2021/12/24 08:23:56;;;;;;;6.20;4.30;;;8.90;99.90;;;;;;5034949;28;20052;-65
2021/12/24 08:26:22;;;;;;;6.07;3.70;;;8.90;99.90;;;;;;5035580;28;20498;-66
2021/12/24 08:28:49;;;;;;;6.03;4.30;;;8.80;99.90;;;;;;5035517;28;20044;-66
2021/12/24 08:31:16;;;;;;;10.13;4.50;;;8.90;99.90;;;;;;5033536;28;20439;-66
2021/12/24 08:33:41;;;;;;;;;;;8.90;99.90;;;;;;5035793;28;20054;-65
2021/12/24 08:36:09;;;;;;;9.63;4.43;;;8.90;99.90;;;;;;5034347;28;19995;-64
2021/12/24 08:38:35;;;;;;;7.80;4.00;;;8.90;99.90;;;;;;5032791;28;20029;-64
2021/12/24 08:41:01;;;;;;;8.32;3.80;;;8.90;99.90;;;;;;5033688;28;20033;-65
2021/12/24 08:43:27;;;;;;;8.43;4.07;;;8.90;99.90;;;;;;5033609;28;20466;-65
2021/12/24 08:45:52;;;;;;;8.53;3.77;;;9.00;99.90;;;;;;5034094;28;20061;-64
2021/12/24 08:48:18;;;;;;;5.97;4.05;;;9.00;99.90;;;;;;5032673;28;20043;-65
2021/12/24 08:50:44;;;;;;;6.38;3.67;;;9.00;99.90;;;;;;5033962;28;20474;-65
2021/12/24 08:53:11;;;;;;;6.65;3.65;;;9.00;99.90;;;;;;5032712;28;20075;-64
2021/12/24 08:55:36;;;;;;;;;;;9.00;99.90;;;;;;5034057;28;20036;-64
2021/12/24 08:58:03;;;;;;;9.07;4.15;;;9.00;99.90;;;;;;5033575;28;19905;-65
2021/12/24 09:00:29;;;;;;;;;;;9.00;99.90;;;;;;5033938;28;20069;-67
2021/12/24 09:02:56;;;;;;;9.02;5.07;;;9.00;99.90;;;;;;5033281;28;20282;-68
2021/12/24 09:05:22;;;;;;;14.27;7.60;;;9.00;99.90;;;;;;5031861;28;20022;-67
2021/12/24 09:07:48;;;;;;;11.45;5.20;;;8.90;99.90;;;;;;5033376;28;20045;-68
2021/12/24 09:10:14;;;;;;;11.38;5.82;;;8.90;99.90;;;;;;5033024;28;20033;-65
2021/12/24 09:12:43;;;;;;;7.63;4.57;;;8.90;99.90;;;;;;5032699;28;20029;-64
2021/12/24 09:15:12;;;;;;;7.70;4.40;;;8.90;99.90;;;;;;5032862;28;20029;-64
2021/12/24 09:17:44;;;;;;;9.68;4.95;;;8.80;99.90;;;;;;5031306;28;20029;-64
2021/12/24 09:20:13;;;;;;;6.55;4.85;;;8.80;99.90;;;;;;5033205;28;20053;-63
2021/12/24 09:22:40;;;;;;;8.25;4.53;;;8.60;99.90;;;;;;5033122;28;20053;-66
2021/12/24 09:25:06;;;;;;;9.88;5.00;;;8.50;99.90;;;;;;5032589;28;20018;-64
2021/12/24 09:27:32;;;;;;;8.20;4.60;;;8.40;99.90;;;;;;5032996;28;20020;-64
2021/12/24 09:29:58;;;;;;;9.43;4.80;;;8.30;99.90;;;;;;5033125;28;20018;-64
2021/12/24 09:32:25;;;;;;;9.20;5.63;;;8.30;99.90;;;;;;5032668;28;20025;-64
2021/12/24 09:34:51;;;;;;;13.13;5.43;;;8.20;99.90;;;;;;5032236;28;20048;-63
2021/12/24 09:37:17;;;;;;;8.27;4.93;;;8.20;99.90;;;;;;5032553;28;20474;-63
2021/12/24 09:39:42;;;;;;;11.10;5.40;;;8.10;99.90;;;;;;5031360;28;20036;-64
2021/12/24 09:42:09;;;;;;;10.47;5.37;;;8.10;99.90;;;;;;5032800;28;20462;-66
2021/12/24 09:44:35;;;;;;;9.13;5.25;;;8.10;99.90;;;;;;5033076;28;20264;-66
2021/12/24 09:47:01;;;;;;;11.45;5.63;;;8.10;99.90;;;;;;5032639;28;20017;-62
2021/12/24 09:49:27;;;;;;;9.17;5.47;;;8.00;99.90;;;;;;5032957;28;20101;-69
2021/12/24 09:51:53;;;;;;;10.63;5.70;;;8.00;99.90;;;;;;5031418;28;20269;-70
2021/12/24 09:54:23;;;;;;;11.17;5.40;;;8.00;99.90;;;;;;5031586;28;20037;-65
2021/12/24 09:56:50;;;;;;;12.40;6.40;;;7.90;99.90;;;;;;5031327;28;20405;-66
2021/12/24 09:59:15;;;;;;;13.60;6.78;;;7.90;99.90;;;;;;5032462;28;20022;-66
2021/12/24 10:01:44;;;;;;;10.65;6.30;;;7.90;99.90;;;;;;5032554;28;20047;-63
2021/12/24 10:04:18;;;;;;;54.22;21.02;;;7.90;99.90;;;;;;5035252;28;20026;-63
2021/12/24 10:06:50;;;;;;;11.35;6.85;;;7.80;99.90;;;;;;5035116;28;20390;-65
2021/12/24 10:09:16;;;;;;;13.95;6.93;;;7.80;99.90;;;;;;5036192;28;20095;-66
2021/12/24 10:11:49;;;;;;;10.60;6.82;;;7.80;99.90;;;;;;5036376;28;20033;-66
2021/12/24 10:14:17;;;;;;;11.18;7.38;;;7.80;99.90;;;;;;5036183;28;20036;-65
2021/12/24 10:16:45;;;;;;;13.80;7.47;;;7.80;99.90;;;;;;5035902;28;20030;-65
2021/12/24 10:19:11;;;;;;;13.15;6.93;;;7.80;99.90;;;;;;5036477;28;20021;-66
2021/12/24 10:21:38;;;;;;;14.63;7.60;;;7.80;99.90;;;;;;5034748;28;20036;-66
2021/12/24 10:24:14;;;;;;;15.32;6.72;;;7.80;99.90;;;;;;5036409;28;20040;-65
2021/12/24 10:26:51;;;;;;;11.07;6.40;;;7.80;99.90;;;;;;5037146;28;20037;-66
2021/12/24 10:29:17;;;;;;;;;;;7.80;99.90;;;;;;5036425;28;20076;-66
2021/12/24 10:31:47;;;;;;;22.30;12.63;;;7.80;99.90;;;;;;5035919;28;19905;-66
2021/12/24 10:34:26;;;;;;;9.82;6.50;;;7.80;99.90;;;;;;5036202;28;20473;-63
2021/12/24 10:36:59;;;;;;;11.52;7.32;;;7.80;99.90;;;;;;5035855;28;20021;-63
2021/12/24 10:39:31;;;;;;;13.40;7.13;;;7.90;99.90;;;;;;5035557;28;20108;-63
2021/12/24 10:41:59;;;;;;;10.73;6.90;;;7.90;99.90;;;;;;5035823;28;20022;-64
2021/12/24 10:44:31;;;;;;;17.80;6.85;;;7.90;99.90;;;;;;5035844;28;20032;-63
2021/12/24 10:47:03;;;;;;;12.55;7.15;;;7.90;99.90;;;;;;5035473;28;20478;-64
2021/12/24 10:55:11;;;;;;;12.63;6.90;;;7.80;99.90;;;;;;5037045;28;20037;-63
2021/12/24 10:57:40;;;;;;;9.77;6.10;;;7.80;99.90;;;;;;5042228;28;20039;-64
2021/12/24 11:00:22;;;;;;;11.88;6.95;;;7.90;99.90;;;;;;5035863;28;20030;-64
2021/12/24 11:02:52;;;;;;;11.23;6.38;;;7.90;99.90;;;;;;5035363;28;20025;-64
2021/12/24 11:05:42;;;;;;;11.00;6.80;;;7.90;99.90;;;;;;5035041;28;20427;-63
2021/12/24 11:08:14;;;;;;;11.20;6.93;;;7.90;99.90;;;;;;5035302;28;20029;-64
2021/12/24 11:10:42;;;;;;;12.68;7.10;;;7.90;99.90;;;;;;5035491;28;20374;-63
2021/12/24 11:13:13;;;;;;;11.35;6.60;;;8.00;99.90;;;;;;5035340;28;20429;-63
2021/12/24 11:15:40;;;;;;;12.38;6.60;;;8.00;99.90;;;;;;5033999;28;20026;-62
2021/12/24 11:18:19;;;;;;;10.35;6.30;;;8.00;99.90;;;;;;5035137;28;20036;-62
2021/12/24 11:20:50;;;;;;;15.88;6.90;;;8.00;99.90;;;;;;5034574;28;20032;-61
2021/12/24 11:23:17;;;;;;;9.85;6.28;;;8.10;99.90;;;;;;5034797;28;20367;-61
2021/12/24 11:25:50;;;;;;;13.80;7.07;;;8.10;99.90;;;;;;5034789;28;20017;-62
2021/12/24 11:28:16;;;;;;;10.80;6.22;;;8.10;99.90;;;;;;5035547;28;20021;-63
2021/12/24 11:30:49;;;;;;;9.77;6.40;;;8.10;99.90;;;;;;5034824;28;20018;-65
2021/12/24 11:33:18;;;;;;;12.52;6.57;;;8.10;99.90;;;;;;5034775;28;20026;-62
2021/12/24 11:35:45;;;;;;;10.20;5.60;;;8.10;99.90;;;;;;5034724;28;20470;-62
2021/12/24 11:38:22;;;;;;;9.10;5.50;;;8.10;99.90;;;;;;5034878;28;20033;-62
2021/12/24 11:40:50;;;;;;;11.60;6.35;;;8.20;99.90;;;;;;5034486;28;20461;-63
2021/12/24 11:43:20;;;;;;;11.02;5.93;;;8.20;99.90;;;;;;5034347;28;20112;-63
2021/12/24 11:45:46;;;;;;;10.57;5.72;;;8.30;99.90;;;;;;5034575;28;20157;-63
2021/12/24 11:48:12;;;;;;;9.23;5.63;;;8.30;99.90;;;;;;5034510;28;20041;-62
2021/12/24 11:50:38;;;;;;;8.30;4.70;;;8.30;99.90;;;;;;5034120;28;20539;-62
2021/12/24 11:53:07;;;;;;;;;;;8.40;99.90;;;;;;5034459;28;20087;-62
2021/12/24 11:55:42;;;;;;;10.07;5.18;;;8.40;99.90;;;;;;5034231;28;19905;-63
2021/12/24 11:58:15;;;;;;;10.82;5.40;;;8.50;99.90;;;;;;5034089;28;20033;-63
2021/12/24 12:00:43;;;;;;;10.05;5.75;;;8.50;99.90;;;;;;5032535;28;20025;-60
2021/12/24 12:03:10;;;;;;;9.63;6.13;;;8.40;99.90;;;;;;5033683;28;20022;-62
2021/12/24 12:05:41;;;;;;;9.65;5.30;;;8.40;99.90;;;;;;5033955;28;20378;-60
2021/12/24 12:08:28;;;;;;;11.13;5.93;;;8.40;99.90;;;;;;5033695;28;20013;-62
2021/12/24 12:10:59;;;;;;;11.93;5.25;;;8.40;99.90;;;;;;5033605;28;20091;-61
2021/12/24 12:13:37;;;;;;;10.02;5.90;;;8.40;99.90;;;;;;5033708;28;20022;-63
2021/12/24 12:16:03;;;;;;;7.75;5.10;;;8.40;99.90;;;;;;5033745;28;20441;-61
2021/12/24 12:18:32;;;;;;;9.05;5.65;;;8.40;99.90;;;;;;5033743;28;20021;-62
2021/12/24 12:21:34;;;;;;;8.82;4.97;;;8.40;99.90;;;;;;5033498;28;20033;-62
2021/12/24 12:26:33;;;;;;;7.65;4.65;;;8.50;99.90;;;;;;5033603;28;20026;-64
2021/12/24 12:29:17;;;;;;;7.82;5.30;;;8.50;99.90;;;;;;5033552;28;20378;-64
2021/12/24 12:31:43;;;;;;;8.40;4.72;;;8.50;99.90;;;;;;5033727;28;20413;-64
2021/12/24 12:34:36;;;;;;;10.73;5.05;;;8.50;99.90;;;;;;5033213;28;20059;-63
2021/12/24 12:37:18;;;;;;;8.93;5.18;;;8.50;99.90;;;;;;5033210;28;20025;-63
2021/12/24 12:39:46;;;;;;;11.40;7.65;;;8.50;99.90;;;;;;5031720;28;20132;-63
2021/12/24 12:42:17;;;;;;;12.50;4.80;;;8.50;99.90;;;;;;5033083;28;20053;-62
2021/12/24 12:44:46;;;;;;;9.73;5.55;;;8.70;99.90;;;;;;5033033;28;20044;-63
2021/12/24 12:47:22;;;;;;;8.27;4.90;;;8.80;99.90;;;;;;5033130;28;20025;-68
2021/12/24 12:49:48;;;;;;;8.05;4.95;;;8.80;99.90;;;;;;5032012;28;20104;-65
2021/12/24 12:52:30;;;;;;;7.38;4.50;;;8.80;99.90;;;;;;5032348;28;20481;-65
2021/12/24 12:54:58;;;;;;;8.52;4.95;;;8.80;99.90;;;;;;5033392;28;20033;-66
2021/12/24 12:57:28;;;;;;;7.30;4.47;;;8.80;99.90;;;;;;5033156;28;20041;-62
2021/12/24 13:00:18;;;;;;;9.38;4.60;;;8.80;99.90;;;;;;5033276;28;20036;-63
2021/12/24 13:03:01;;;;;;;7.38;4.72;;;8.70;99.90;;;;;;5032659;28;20029;-64
2021/12/24 13:05:30;;;;;;;5.57;3.63;;;8.80;99.90;;;;;;5033084;28;20326;-63
2021/12/24 13:08:00;;;;;;;7.45;4.32;;;8.80;99.90;;;;;;5033239;28;20097;-63
2021/12/24 13:10:29;;;;;;;8.82;4.35;;;8.80;99.90;;;;;;5033512;28;20025;-65
2021/12/24 13:13:05;;;;;;;8.55;4.97;;;8.80;99.90;;;;;;5033141;28;20482;-65
2021/12/24 13:15:33;;;;;;;10.33;5.50;;;8.80;99.90;;;;;;5033332;28;20120;-65
2021/12/24 13:18:05;;;;;;;8.90;4.80;;;8.90;99.90;;;;;;5032588;28;20625;-65
2021/12/24 13:20:44;;;;;;;10.55;4.95;;;8.90;99.90;;;;;;5035054;28;20036;-66
2021/12/24 13:23:20;;;;;;;7.90;4.88;;;8.90;99.90;;;;;;5034110;28;20030;-66
2021/12/24 13:25:46;;;;;;;8.43;4.90;;;9.00;99.90;;;;;;5035368;28;20048;-66
2021/12/24 13:28:12;;;;;;;9.43;4.80;;;9.10;99.90;;;;;;5035199;28;20029;-66
2021/12/24 13:30:37;;;;;;;8.13;4.60;;;9.10;99.90;;;;;;5035011;28;20271;-65
2021/12/24 13:33:07;;;;;;;7.17;4.60;;;9.10;99.90;;;;;;5033767;28;20183;-65
2021/12/24 13:35:49;;;;;;;7.47;4.35;;;9.10;99.90;;;;;;5033642;28;20029;-65
2021/12/24 13:38:19;;;;;;;7.43;4.40;;;9.20;99.90;;;;;;5034453;28;20378;-65
2021/12/24 13:40:46;;;;;;;8.88;4.70;;;9.20;99.90;;;;;;5037905;28;20026;-65
2021/12/24 13:43:13;;;;;;;7.60;4.55;;;9.20;99.90;;;;;;5037630;28;20021;-65
2021/12/24 13:45:43;;;;;;;7.47;4.22;;;9.30;99.90;;;;;;5037682;28;20018;-65
2021/12/24 13:48:14;;;;;;;6.30;4.07;;;9.20;99.90;;;;;;5038222;28;20021;-64
2021/12/24 13:56:36;;;;;;;7.95;4.30;;;9.20;99.90;;;;;;5037748;28;20379;-63
2021/12/24 13:59:03;;;;;;;6.77;4.47;;;9.10;99.90;;;;;;5037534;28;20091;-64
2021/12/24 14:01:29;;;;;;;;;;;9.10;99.90;;;;;;5037443;28;20025;-65
2021/12/24 14:03:56;;;;;;;5.88;3.80;;;9.10;99.90;;;;;;5035195;28;20622;-64
2021/12/24 14:06:40;;;;;;;7.82;4.68;;;9.10;99.90;;;;;;5036244;28;20032;-64
2021/12/24 14:09:13;;;;;;;7.28;4.35;;;9.10;99.90;;;;;;5036820;28;20425;-66
2021/12/24 14:11:40;;;;;;;12.23;8.15;;;9.10;99.90;;;;;;5035951;28;20541;-66
2021/12/24 14:14:12;;;;;;;7.22;4.60;;;9.10;99.90;;;;;;5036018;28;20104;-65
2021/12/24 14:19:36;;;;;;;7.20;4.70;;;9.10;99.90;;;;;;5036628;28;20401;-65
2021/12/24 14:22:11;;;;;;;7.68;4.80;;;9.10;99.90;;;;;;5034893;28;20029;-65
2021/12/24 14:24:48;;;;;;;7.88;4.32;;;9.10;99.90;;;;;;5036306;28;20112;-68
2021/12/24 14:27:18;;;;;;;9.90;4.82;;;9.10;99.90;;;;;;5047108;28;20061;-66
2021/12/24 14:29:46;;;;;;;6.72;4.65;;;9.10;99.90;;;;;;5052647;28;20021;-66
2021/12/24 14:32:16;;;;;;;8.13;4.85;;;9.10;99.90;;;;;;5040711;28;20026;-63
2021/12/24 14:34:50;;;;;;;6.50;4.45;;;9.10;99.90;;;;;;5035804;28;20535;-62
2021/12/24 14:37:19;;;;;;;8.93;5.07;;;9.10;99.90;;;;;;5036542;28;20044;-63
2021/12/24 14:39:48;;;;;;;10.20;4.97;;;9.10;99.90;;;;;;5037272;28;20029;-62
2021/12/24 14:42:18;;;;;;;8.18;4.65;;;9.10;99.90;;;;;;5037230;28;20505;-63
2021/12/24 14:44:46;;;;;;;11.35;5.47;;;9.00;99.90;;;;;;5036391;28;20096;-62
2021/12/24 14:47:16;;;;;;;11.73;4.95;;;9.00;99.90;;;;;;5036623;28;20022;-63
2021/12/24 14:49:42;;;;;;;8.95;4.93;;;9.00;99.90;;;;;;5036690;28;20052;-63
2021/12/24 14:52:23;;;;;;;12.43;6.32;;;9.00;99.90;;;;;;5036590;28;20029;-64
2021/12/24 14:55:13;;;;;;;10.77;5.65;;;8.90;99.90;;;;;;5035810;28;20466;-64
2021/12/24 14:57:51;;;;;;;9.48;5.75;;;8.90;99.90;;;;;;5036323;28;20471;-64
2021/12/24 15:00:21;;;;;;;9.23;5.43;;;8.90;99.90;;;;;;5035546;28;20033;-65
2021/12/24 15:02:48;;;;;;;10.18;6.30;;;8.90;99.90;;;;;;5035679;28;20089;-64